Airfield :
LOGIN :

Register | Disclaimer

   EN    FR    IT 

 










Legend :    VFR   Marginal VFR   IFR   Intensive IFR   Very Intensive IFR
Visi :
Ceiling :
>= 8 km
>= 3000ft
5 to 8 km
1000 to 3000 ft
1500m to 5 km
500 to 1000 ft
800 to 1500m
200 to 500 ft
< 800m
< 200 ft
Symbols :   Thunderstorms  Fog  Heavy snow  Heavy precipitations  Wind > 20 kt
SIGMETs :     Misc.  Thunderstorms  Icing  Turbulence  Mountain Waves  Volcanic Ashes






- Airport Elevation : 359 ft
- IATA code : BVA


LFOB - Beauvais

CURRENT METAR :
  • 211930Z AUTO 16007KT 9999 BKN014 OVC019 07/06 Q1002 TEMPO 3000 RA OVC004

EXPIRED METARs :
  • 211900Z AUTO 14007KT 9999 -DZ BKN018 OVC024 07/06 Q1002 TEMPO 3000 RA OVC004
  • 211830Z AUTO 14006KT 9999 -DZ SCT026 OVC035 07/06 Q1002 TEMPO 3000 RA OVC004
  • 211800Z AUTO 15008KT 9999 -DZ FEW025 BKN033 OVC043 08/05 Q1002 BECMG OVC008
  • 211730Z AUTO 14005KT 9999 -DZ OVC027 07/05 Q1002 BECMG OVC008
  • 211700Z AUTO 11007KT 9999 OVC029 08/05 Q1002 BECMG OVC008

TAF TAF LFOB
Valid from the 21 at 18:00 until the 22 at 18:00 UTC


211700Z 2118/2218 14010KT 9999 OVC018
BECMG 2118/2120 OVC008
TEMPO 2120/2124 3000 RA OVC004
BECMG 2209/2211 NSC
ATIS : +33 3 44 11 49 28



MET'MAP, your aeronautical weather chart ! - Copyright ORBIFLY December 2007 - Disclaimer

ORBIFLY MET'MAP TEAM :

Programming & Development : Alexandra Zaïnal
Concept & Development : Baudouin d'Aumeries
Co-Development & Prog : Marc-Olivier Méhu
Technical & hardware support : Manuel Goepfert

Contact : metmap@orbifly.com




SOURCES & CREDITS :

   NOAA